sensor_id;sensor_type;location;lat;lon;timestamp;P1;durP1;ratioP1;P2;durP2;ratioP2
25327;SDS011;13279;51.300;12.394;2022-10-20T00:02:08;8.57;;;2.80;;
25327;SDS011;13279;51.300;12.394;2022-10-20T00:04:36;3.10;;;2.90;;
25327;SDS011;13279;51.300;12.394;2022-10-20T00:07:03;5.77;;;3.07;;
25327;SDS011;13279;51.300;12.394;2022-10-20T00:09:30;7.87;;;2.80;;
25327;SDS011;13279;51.300;12.394;2022-10-20T00:11:58;3.30;;;2.90;;
25327;SDS011;13279;51.300;12.394;2022-10-20T00:14:27;6.40;;;3.07;;
25327;SDS011;13279;51.300;12.394;2022-10-20T00:16:55;6.37;;;3.47;;
25327;SDS011;13279;51.300;12.394;2022-10-20T00:19:25;3.10;;;2.77;;
25327;SDS011;13279;51.300;12.394;2022-10-20T00:21:53;3.50;;;2.90;;
25327;SDS011;13279;51.300;12.394;2022-10-20T00:24:21;4.77;;;2.83;;
25327;SDS011;13279;51.300;12.394;2022-10-20T00:26:49;3.80;;;2.80;;
25327;SDS011;13279;51.300;12.394;2022-10-20T00:29:16;11.23;;;3.33;;
25327;SDS011;13279;51.300;12.394;2022-10-20T00:31:45;8.10;;;3.43;;
25327;SDS011;13279;51.300;12.394;2022-10-20T00:34:12;5.93;;;3.53;;
25327;SDS011;13279;51.300;12.394;2022-10-20T00:36:40;5.10;;;2.87;;
25327;SDS011;13279;51.300;12.394;2022-10-20T00:39:07;7.50;;;3.97;;
25327;SDS011;13279;51.300;12.394;2022-10-20T00:41:35;4.33;;;3.20;;
25327;SDS011;13279;51.300;12.394;2022-10-20T00:44:43;2.80;;;2.60;;
25327;SDS011;13279;51.300;12.394;2022-10-20T00:47:09;4.17;;;2.57;;
25327;SDS011;13279;51.300;12.394;2022-10-20T00:49:42;4.30;;;3.07;;
25327;SDS011;13279;51.300;12.394;2022-10-20T00:52:10;5.50;;;2.77;;
25327;SDS011;13279;51.300;12.394;2022-10-20T00:54:38;4.87;;;3.27;;
25327;SDS011;13279;51.300;12.394;2022-10-20T00:57:05;5.03;;;3.37;;
25327;SDS011;13279;51.300;12.394;2022-10-20T00:59:33;3.03;;;2.50;;
25327;SDS011;13279;51.300;12.394;2022-10-20T01:02:02;7.53;;;2.87;;
25327;SDS011;13279;51.300;12.394;2022-10-20T01:04:33;5.83;;;2.70;;
25327;SDS011;13279;51.300;12.394;2022-10-20T01:07:03;5.27;;;2.80;;
25327;SDS011;13279;51.300;12.394;2022-10-20T01:09:31;4.90;;;3.67;;
25327;SDS011;13279;51.300;12.394;2022-10-20T01:12:02;8.03;;;3.07;;
25327;SDS011;13279;51.300;12.394;2022-10-20T01:14:40;5.17;;;2.60;;
25327;SDS011;13279;51.300;12.394;2022-10-20T01:17:16;5.20;;;2.80;;
25327;SDS011;13279;51.300;12.394;2022-10-20T01:26:15;2.97;;;2.57;;
25327;SDS011;13279;51.300;12.394;2022-10-20T01:29:10;2.70;;;2.50;;
25327;SDS011;13279;51.300;12.394;2022-10-20T01:31:43;7.63;;;2.67;;
25327;SDS011;13279;51.300;12.394;2022-10-20T01:34:19;2.87;;;2.60;;
25327;SDS011;13279;51.300;12.394;2022-10-20T01:36:56;5.60;;;2.50;;
25327;SDS011;13279;51.300;12.394;2022-10-20T01:39:28;3.00;;;2.73;;
25327;SDS011;13279;51.300;12.394;2022-10-20T01:42:02;6.53;;;3.23;;
25327;SDS011;13279;51.300;12.394;2022-10-20T01:44:34;4.00;;;2.60;;
25327;SDS011;13279;51.300;12.394;2022-10-20T01:47:03;2.97;;;2.50;;
25327;SDS011;13279;51.300;12.394;2022-10-20T01:49:33;3.97;;;2.60;;
25327;SDS011;13279;51.300;12.394;2022-10-20T01:52:01;7.13;;;3.20;;
25327;SDS011;13279;51.300;12.394;2022-10-20T01:54:28;2.73;;;2.53;;
25327;SDS011;13279;51.300;12.394;2022-10-20T01:57:01;4.33;;;2.97;;
25327;SDS011;13279;51.300;12.394;2022-10-20T01:59:44;7.10;;;3.07;;
25327;SDS011;13279;51.300;12.394;2022-10-20T02:02:28;5.63;;;2.80;;
25327;SDS011;13279;51.300;12.394;2022-10-20T02:05:09;5.67;;;2.70;;
25327;SDS011;13279;51.300;12.394;2022-10-20T02:07:45;3.73;;;2.20;;
25327;SDS011;13279;51.300;12.394;2022-10-20T02:10:13;2.70;;;2.50;;
25327;SDS011;13279;51.300;12.394;2022-10-20T02:12:50;8.93;;;2.47;;
25327;SDS011;13279;51.300;12.394;2022-10-20T02:15:23;5.00;;;3.10;;
25327;SDS011;13279;51.300;12.394;2022-10-20T02:17:53;2.90;;;2.60;;
25327;SDS011;13279;51.300;12.394;2022-10-20T02:20:25;4.10;;;2.77;;
25327;SDS011;13279;51.300;12.394;2022-10-20T02:22:52;2.80;;;2.20;;
25327;SDS011;13279;51.300;12.394;2022-10-20T02:25:21;4.67;;;2.17;;
25327;SDS011;13279;51.300;12.394;2022-10-20T02:27:50;3.87;;;2.70;;
25327;SDS011;13279;51.300;12.394;2022-10-20T02:30:20;6.53;;;2.77;;
25327;SDS011;13279;51.300;12.394;2022-10-20T02:32:49;3.67;;;2.63;;
25327;SDS011;13279;51.300;12.394;2022-10-20T02:35:18;7.97;;;2.80;;
25327;SDS011;13279;51.300;12.394;2022-10-20T02:37:49;2.63;;;2.43;;
25327;SDS011;13279;51.300;12.394;2022-10-20T02:40:16;2.67;;;2.40;;
25327;SDS011;13279;51.300;12.394;2022-10-20T02:42:46;3.60;;;3.03;;
25327;SDS011;13279;51.300;12.394;2022-10-20T02:45:14;3.77;;;2.80;;
25327;SDS011;13279;51.300;12.394;2022-10-20T02:47:43;4.13;;;2.80;;
25327;SDS011;13279;51.300;12.394;2022-10-20T02:50:10;3.97;;;3.13;;
25327;SDS011;13279;51.300;12.394;2022-10-20T02:52:38;7.33;;;3.07;;
25327;SDS011;13279;51.300;12.394;2022-10-20T02:55:06;2.77;;;2.37;;
25327;SDS011;13279;51.300;12.394;2022-10-20T02:57:34;4.30;;;3.37;;
25327;SDS011;13279;51.300;12.394;2022-10-20T03:00:01;3.63;;;3.20;;
25327;SDS011;13279;51.300;12.394;2022-10-20T03:02:29;3.60;;;3.30;;
25327;SDS011;13279;51.300;12.394;2022-10-20T03:04:58;6.50;;;3.63;;
25327;SDS011;13279;51.300;12.394;2022-10-20T03:07:25;7.00;;;3.47;;
25327;SDS011;13279;51.300;12.394;2022-10-20T03:09:53;3.43;;;3.10;;
25327;SDS011;13279;51.300;12.394;2022-10-20T03:12:20;4.10;;;3.30;;
25327;SDS011;13279;51.300;12.394;2022-10-20T03:14:48;3.97;;;3.07;;
25327;SDS011;13279;51.300;12.394;2022-10-20T03:17:15;11.00;;;3.40;;
25327;SDS011;13279;51.300;12.394;2022-10-20T03:19:43;4.47;;;3.50;;
25327;SDS011;13279;51.300;12.394;2022-10-20T03:22:11;7.33;;;3.40;;
25327;SDS011;13279;51.300;12.394;2022-10-20T03:24:39;11.60;;;3.43;;
25327;SDS011;13279;51.300;12.394;2022-10-20T03:27:06;5.47;;;3.87;;
25327;SDS011;13279;51.300;12.394;2022-10-20T03:29:34;4.20;;;3.50;;
25327;SDS011;13279;51.300;12.394;2022-10-20T03:32:01;6.60;;;3.13;;
25327;SDS011;13279;51.300;12.394;2022-10-20T03:34:28;3.63;;;2.90;;
25327;SDS011;13279;51.300;12.394;2022-10-20T03:36:56;8.03;;;3.37;;
25327;SDS011;13279;51.300;12.394;2022-10-20T03:39:25;7.10;;;3.70;;
25327;SDS011;13279;51.300;12.394;2022-10-20T03:41:52;9.87;;;4.67;;
25327;SDS011;13279;51.300;12.394;2022-10-20T03:44:22;8.03;;;4.63;;
25327;SDS011;13279;51.300;12.394;2022-10-20T03:46:49;6.63;;;4.23;;
25327;SDS011;13279;51.300;12.394;2022-10-20T03:49:17;5.03;;;4.23;;
25327;SDS011;13279;51.300;12.394;2022-10-20T03:51:44;7.47;;;4.57;;
25327;SDS011;13279;51.300;12.394;2022-10-20T03:54:11;6.83;;;4.73;;
25327;SDS011;13279;51.300;12.394;2022-10-20T03:56:40;5.93;;;4.70;;
25327;SDS011;13279;51.300;12.394;2022-10-20T03:59:08;6.67;;;4.53;;
25327;SDS011;13279;51.300;12.394;2022-10-20T04:01:37;8.60;;;4.43;;
25327;SDS011;13279;51.300;12.394;2022-10-20T04:04:04;6.50;;;4.70;;
25327;SDS011;13279;51.300;12.394;2022-10-20T04:06:31;12.43;;;4.10;;
25327;SDS011;13279;51.300;12.394;2022-10-20T04:08:59;7.40;;;5.17;;
25327;SDS011;13279;51.300;12.394;2022-10-20T04:11:26;5.60;;;4.30;;
25327;SDS011;13279;51.300;12.394;2022-10-20T04:13:55;7.70;;;4.40;;
25327;SDS011;13279;51.300;12.394;2022-10-20T04:16:23;5.67;;;4.63;;
25327;SDS011;13279;51.300;12.394;2022-10-20T04:18:51;7.27;;;5.07;;
25327;SDS011;13279;51.300;12.394;2022-10-20T04:21:18;9.50;;;4.80;;
25327;SDS011;13279;51.300;12.394;2022-10-20T04:23:46;8.33;;;5.27;;
25327;SDS011;13279;51.300;12.394;2022-10-20T04:26:14;6.07;;;4.90;;
25327;SDS011;13279;51.300;12.394;2022-10-20T04:28:42;7.07;;;4.67;;
25327;SDS011;13279;51.300;12.394;2022-10-20T04:31:11;7.73;;;5.07;;
25327;SDS011;13279;51.300;12.394;2022-10-20T04:33:38;10.23;;;5.93;;
25327;SDS011;13279;51.300;12.394;2022-10-20T04:36:06;7.10;;;5.33;;
25327;SDS011;13279;51.300;12.394;2022-10-20T04:38:36;9.87;;;5.40;;
25327;SDS011;13279;51.300;12.394;2022-10-20T04:41:03;7.90;;;5.00;;
25327;SDS011;13279;51.300;12.394;2022-10-20T04:43:31;9.40;;;5.80;;
25327;SDS011;13279;51.300;12.394;2022-10-20T04:46:00;11.97;;;5.60;;
25327;SDS011;13279;51.300;12.394;2022-10-20T04:48:29;8.03;;;5.23;;
25327;SDS011;13279;51.300;12.394;2022-10-20T04:51:00;8.40;;;4.70;;
25327;SDS011;13279;51.300;12.394;2022-10-20T04:53:29;9.37;;;5.17;;
25327;SDS011;13279;51.300;12.394;2022-10-20T04:55:56;8.37;;;5.80;;
25327;SDS011;13279;51.300;12.394;2022-10-20T04:58:24;16.87;;;6.50;;
25327;SDS011;13279;51.300;12.394;2022-10-20T05:00:52;15.50;;;6.17;;
25327;SDS011;13279;51.300;12.394;2022-10-20T05:03:19;9.60;;;5.80;;
25327;SDS011;13279;51.300;12.394;2022-10-20T05:05:48;13.97;;;6.13;;
25327;SDS011;13279;51.300;12.394;2022-10-20T05:08:15;11.67;;;6.13;;
25327;SDS011;13279;51.300;12.394;2022-10-20T05:10:43;8.53;;;5.37;;
25327;SDS011;13279;51.300;12.394;2022-10-20T05:13:10;11.13;;;5.90;;
25327;SDS011;13279;51.300;12.394;2022-10-20T05:15:38;11.23;;;6.13;;
25327;SDS011;13279;51.300;12.394;2022-10-20T05:18:05;9.17;;;6.80;;
25327;SDS011;13279;51.300;12.394;2022-10-20T05:20:33;7.00;;;5.73;;
25327;SDS011;13279;51.300;12.394;2022-10-20T05:23:05;8.53;;;5.63;;
25327;SDS011;13279;51.300;12.394;2022-10-20T05:25:34;12.37;;;6.43;;
25327;SDS011;13279;51.300;12.394;2022-10-20T05:28:02;11.47;;;6.37;;
25327;SDS011;13279;51.300;12.394;2022-10-20T05:30:30;13.20;;;5.93;;
25327;SDS011;13279;51.300;12.394;2022-10-20T05:32:59;10.07;;;5.93;;
25327;SDS011;13279;51.300;12.394;2022-10-20T05:35:26;10.50;;;6.03;;
25327;SDS011;13279;51.300;12.394;2022-10-20T05:37:55;7.97;;;5.43;;
25327;SDS011;13279;51.300;12.394;2022-10-20T05:40:24;12.07;;;6.23;;
25327;SDS011;13279;51.300;12.394;2022-10-20T05:42:51;12.13;;;6.37;;
25327;SDS011;13279;51.300;12.394;2022-10-20T05:45:20;11.53;;;6.07;;
25327;SDS011;13279;51.300;12.394;2022-10-20T05:47:47;10.03;;;6.33;;
25327;SDS011;13279;51.300;12.394;2022-10-20T05:50:15;10.13;;;5.90;;
25327;SDS011;13279;51.300;12.394;2022-10-20T05:52:42;15.87;;;6.30;;
25327;SDS011;13279;51.300;12.394;2022-10-20T05:55:10;9.33;;;6.50;;
25327;SDS011;13279;51.300;12.394;2022-10-20T05:57:39;12.87;;;6.07;;
25327;SDS011;13279;51.300;12.394;2022-10-20T06:00:07;13.30;;;6.53;;
25327;SDS011;13279;51.300;12.394;2022-10-20T06:02:37;12.43;;;6.43;;
25327;SDS011;13279;51.300;12.394;2022-10-20T06:05:05;10.60;;;6.53;;
25327;SDS011;13279;51.300;12.394;2022-10-20T06:07:32;14.20;;;6.80;;
25327;SDS011;13279;51.300;12.394;2022-10-20T06:10:00;13.40;;;7.23;;
25327;SDS011;13279;51.300;12.394;2022-10-20T06:12:27;15.13;;;7.50;;
25327;SDS011;13279;51.300;12.394;2022-10-20T06:14:56;14.77;;;7.43;;
25327;SDS011;13279;51.300;12.394;2022-10-20T06:17:23;14.07;;;7.37;;
25327;SDS011;13279;51.300;12.394;2022-10-20T06:19:51;16.80;;;8.00;;
25327;SDS011;13279;51.300;12.394;2022-10-20T06:22:18;12.13;;;7.50;;
25327;SDS011;13279;51.300;12.394;2022-10-20T06:24:46;13.53;;;8.13;;
25327;SDS011;13279;51.300;12.394;2022-10-20T06:27:14;18.07;;;8.20;;
25327;SDS011;13279;51.300;12.394;2022-10-20T06:29:41;20.10;;;8.93;;
25327;SDS011;13279;51.300;12.394;2022-10-20T06:32:10;15.37;;;7.93;;
25327;SDS011;13279;51.300;12.394;2022-10-20T06:34:38;12.33;;;7.27;;
25327;SDS011;13279;51.300;12.394;2022-10-20T06:37:05;17.50;;;8.27;;
25327;SDS011;13279;51.300;12.394;2022-10-20T06:39:34;13.30;;;7.97;;
25327;SDS011;13279;51.300;12.394;2022-10-20T06:42:02;12.97;;;7.73;;
25327;SDS011;13279;51.300;12.394;2022-10-20T06:44:31;14.03;;;7.67;;
25327;SDS011;13279;51.300;12.394;2022-10-20T06:46:58;13.10;;;7.87;;
25327;SDS011;13279;51.300;12.394;2022-10-20T06:49:27;12.97;;;7.77;;
25327;SDS011;13279;51.300;12.394;2022-10-20T06:51:55;12.53;;;7.20;;
25327;SDS011;13279;51.300;12.394;2022-10-20T06:54:23;10.67;;;6.97;;
25327;SDS011;13279;51.300;12.394;2022-10-20T06:56:50;16.67;;;7.77;;
25327;SDS011;13279;51.300;12.394;2022-10-20T06:59:17;15.40;;;8.40;;
25327;SDS011;13279;51.300;12.394;2022-10-20T07:01:45;14.63;;;7.83;;
25327;SDS011;13279;51.300;12.394;2022-10-20T07:04:13;11.93;;;7.00;;
25327;SDS011;13279;51.300;12.394;2022-10-20T07:06:43;13.90;;;6.97;;
25327;SDS011;13279;51.300;12.394;2022-10-20T07:09:13;14.17;;;7.27;;
25327;SDS011;13279;51.300;12.394;2022-10-20T07:11:42;16.50;;;7.80;;
25327;SDS011;13279;51.300;12.394;2022-10-20T07:14:10;13.20;;;7.97;;
25327;SDS011;13279;51.300;12.394;2022-10-20T07:16:39;13.57;;;8.13;;
25327;SDS011;13279;51.300;12.394;2022-10-20T07:19:06;16.63;;;8.73;;
25327;SDS011;13279;51.300;12.394;2022-10-20T07:21:34;14.27;;;6.57;;
25327;SDS011;13279;51.300;12.394;2022-10-20T07:24:04;12.77;;;6.77;;
25327;SDS011;13279;51.300;12.394;2022-10-20T07:26:34;13.53;;;6.97;;
25327;SDS011;13279;51.300;12.394;2022-10-20T07:29:03;10.20;;;7.00;;
25327;SDS011;13279;51.300;12.394;2022-10-20T07:31:31;10.73;;;7.20;;
25327;SDS011;13279;51.300;12.394;2022-10-20T07:34:00;13.07;;;6.80;;
25327;SDS011;13279;51.300;12.394;2022-10-20T07:36:30;10.20;;;6.57;;
25327;SDS011;13279;51.300;12.394;2022-10-20T07:38:58;10.13;;;6.23;;
25327;SDS011;13279;51.300;12.394;2022-10-20T07:41:29;15.20;;;6.33;;
25327;SDS011;13279;51.300;12.394;2022-10-20T07:43:57;10.73;;;6.70;;
25327;SDS011;13279;51.300;12.394;2022-10-20T07:46:25;11.67;;;6.80;;
25327;SDS011;13279;51.300;12.394;2022-10-20T07:48:53;15.60;;;5.90;;
25327;SDS011;13279;51.300;12.394;2022-10-20T07:51:24;10.17;;;6.13;;
25327;SDS011;13279;51.300;12.394;2022-10-20T07:53:55;10.80;;;6.50;;
25327;SDS011;13279;51.300;12.394;2022-10-20T07:56:23;6.83;;;5.40;;
25327;SDS011;13279;51.300;12.394;2022-10-20T07:58:54;8.03;;;6.20;;
25327;SDS011;13279;51.300;12.394;2022-10-20T08:01:22;10.73;;;6.23;;
25327;SDS011;13279;51.300;12.394;2022-10-20T08:03:49;10.17;;;6.70;;
25327;SDS011;13279;51.300;12.394;2022-10-20T08:06:16;9.83;;;6.60;;
25327;SDS011;13279;51.300;12.394;2022-10-20T08:08:44;13.10;;;6.17;;
25327;SDS011;13279;51.300;12.394;2022-10-20T08:11:12;10.83;;;6.47;;
25327;SDS011;13279;51.300;12.394;2022-10-20T08:13:39;9.00;;;5.97;;
25327;SDS011;13279;51.300;12.394;2022-10-20T08:16:08;8.67;;;5.90;;
25327;SDS011;13279;51.300;12.394;2022-10-20T08:18:37;7.30;;;5.70;;
25327;SDS011;13279;51.300;12.394;2022-10-20T08:21:08;10.77;;;6.43;;
25327;SDS011;13279;51.300;12.394;2022-10-20T08:23:38;10.57;;;6.20;;
25327;SDS011;13279;51.300;12.394;2022-10-20T08:26:06;10.23;;;5.83;;
25327;SDS011;13279;51.300;12.394;2022-10-20T08:28:34;6.33;;;5.70;;
25327;SDS011;13279;51.300;12.394;2022-10-20T08:31:02;7.73;;;5.30;;
25327;SDS011;13279;51.300;12.394;2022-10-20T08:33:31;11.43;;;6.30;;
25327;SDS011;13279;51.300;12.394;2022-10-20T08:36:00;9.30;;;7.10;;
25327;SDS011;13279;51.300;12.394;2022-10-20T08:38:28;12.73;;;6.10;;
25327;SDS011;13279;51.300;12.394;2022-10-20T08:40:55;9.73;;;5.90;;
25327;SDS011;13279;51.300;12.394;2022-10-20T08:43:24;9.50;;;6.23;;
25327;SDS011;13279;51.300;12.394;2022-10-20T08:45:54;12.93;;;6.30;;
25327;SDS011;13279;51.300;12.394;2022-10-20T08:48:23;11.23;;;5.27;;
25327;SDS011;13279;51.300;12.394;2022-10-20T08:50:54;10.00;;;5.80;;
25327;SDS011;13279;51.300;12.394;2022-10-20T08:53:22;8.17;;;5.70;;
25327;SDS011;13279;51.300;12.394;2022-10-20T08:55:51;8.80;;;5.30;;
25327;SDS011;13279;51.300;12.394;2022-10-20T08:58:22;10.67;;;5.30;;
25327;SDS011;13279;51.300;12.394;2022-10-20T09:00:55;6.23;;;4.97;;
25327;SDS011;13279;51.300;12.394;2022-10-20T09:03:27;6.17;;;4.80;;
25327;SDS011;13279;51.300;12.394;2022-10-20T09:05:57;4.60;;;4.13;;
25327;SDS011;13279;51.300;12.394;2022-10-20T09:08:32;4.23;;;3.83;;
25327;SDS011;13279;51.300;12.394;2022-10-20T09:11:04;6.23;;;4.23;;
25327;SDS011;13279;51.300;12.394;2022-10-20T09:13:33;7.20;;;4.00;;
25327;SDS011;13279;51.300;12.394;2022-10-20T09:16:04;4.70;;;3.63;;
25327;SDS011;13279;51.300;12.394;2022-10-20T09:18:33;6.63;;;3.87;;
25327;SDS011;13279;51.300;12.394;2022-10-20T09:21:03;3.13;;;2.90;;
25327;SDS011;13279;51.300;12.394;2022-10-20T09:23:35;7.80;;;3.03;;
25327;SDS011;13279;51.300;12.394;2022-10-20T09:26:08;3.20;;;3.00;;
25327;SDS011;13279;51.300;12.394;2022-10-20T09:28:38;4.67;;;3.17;;
25327;SDS011;13279;51.300;12.394;2022-10-20T09:31:18;5.27;;;3.30;;
25327;SDS011;13279;51.300;12.394;2022-10-20T09:33:48;5.90;;;2.73;;
25327;SDS011;13279;51.300;12.394;2022-10-20T09:36:17;4.17;;;2.30;;
25327;SDS011;13279;51.300;12.394;2022-10-20T09:38:47;8.87;;;2.97;;
25327;SDS011;13279;51.300;12.394;2022-10-20T09:41:17;2.67;;;2.33;;
25327;SDS011;13279;51.300;12.394;2022-10-20T09:43:48;7.97;;;2.40;;
25327;SDS011;13279;51.300;12.394;2022-10-20T09:46:20;4.03;;;2.43;;
25327;SDS011;13279;51.300;12.394;2022-10-20T09:48:49;3.30;;;2.60;;
25327;SDS011;13279;51.300;12.394;2022-10-20T09:51:20;3.17;;;2.30;;
25327;SDS011;13279;51.300;12.394;2022-10-20T09:53:50;3.20;;;2.73;;
25327;SDS011;13279;51.300;12.394;2022-10-20T09:56:24;2.60;;;2.40;;
25327;SDS011;13279;51.300;12.394;2022-10-20T09:58:54;2.80;;;2.10;;
25327;SDS011;13279;51.300;12.394;2022-10-20T10:01:23;5.37;;;2.33;;
25327;SDS011;13279;51.300;12.394;2022-10-20T10:03:53;5.17;;;2.30;;
25327;SDS011;13279;51.300;12.394;2022-10-20T10:06:27;4.23;;;2.17;;
25327;SDS011;13279;51.300;12.394;2022-10-20T10:08:57;2.73;;;2.10;;
25327;SDS011;13279;51.300;12.394;2022-10-20T10:11:27;8.07;;;2.03;;
25327;SDS011;13279;51.300;12.394;2022-10-20T10:14:00;6.40;;;2.60;;
25327;SDS011;13279;51.300;12.394;2022-10-20T10:16:38;4.50;;;2.37;;
25327;SDS011;13279;51.300;12.394;2022-10-20T10:19:11;3.57;;;1.70;;
25327;SDS011;13279;51.300;12.394;2022-10-20T10:21:46;2.00;;;1.90;;
25327;SDS011;13279;51.300;12.394;2022-10-20T10:27:21;3.60;;;2.13;;
25327;SDS011;13279;51.300;12.394;2022-10-20T10:29:52;5.63;;;2.13;;
25327;SDS011;13279;51.300;12.394;2022-10-20T10:32:22;4.40;;;2.20;;
25327;SDS011;13279;51.300;12.394;2022-10-20T10:34:58;2.77;;;2.03;;
25327;SDS011;13279;51.300;12.394;2022-10-20T10:37:37;4.57;;;2.03;;
25327;SDS011;13279;51.300;12.394;2022-10-20T10:40:11;3.30;;;1.80;;
25327;SDS011;13279;51.300;12.394;2022-10-20T10:42:49;2.73;;;2.40;;
25327;SDS011;13279;51.300;12.394;2022-10-20T10:45:55;3.70;;;2.00;;
25327;SDS011;13279;51.300;12.394;2022-10-20T10:48:37;2.73;;;2.40;;
25327;SDS011;13279;51.300;12.394;2022-10-20T10:51:23;2.67;;;2.30;;
25327;SDS011;13279;51.300;12.394;2022-10-20T10:54:05;3.17;;;2.10;;
25327;SDS011;13279;51.300;12.394;2022-10-20T10:56:44;3.20;;;2.67;;
25327;SDS011;13279;51.300;12.394;2022-10-20T10:59:16;5.23;;;2.70;;
25327;SDS011;13279;51.300;12.394;2022-10-20T11:05:09;3.30;;;2.00;;
25327;SDS011;13279;51.300;12.394;2022-10-20T11:07:48;2.77;;;2.27;;
25327;SDS011;13279;51.300;12.394;2022-10-20T11:10:32;2.60;;;2.40;;
25327;SDS011;13279;51.300;12.394;2022-10-20T11:13:15;3.47;;;2.37;;
25327;SDS011;13279;51.300;12.394;2022-10-20T11:15:51;7.87;;;2.93;;
25327;SDS011;13279;51.300;12.394;2022-10-20T11:18:35;4.20;;;2.60;;
25327;SDS011;13279;51.300;12.394;2022-10-20T11:21:18;7.23;;;2.97;;
25327;SDS011;13279;51.300;12.394;2022-10-20T11:26:43;2.87;;;2.50;;
25327;SDS011;13279;51.300;12.394;2022-10-20T11:29:15;5.67;;;3.30;;
25327;SDS011;13279;51.300;12.394;2022-10-20T11:31:50;3.00;;;2.80;;
25327;SDS011;13279;51.300;12.394;2022-10-20T11:34:22;5.13;;;2.70;;
25327;SDS011;13279;51.300;12.394;2022-10-20T11:36:55;6.67;;;2.87;;
25327;SDS011;13279;51.300;12.394;2022-10-20T11:39:33;6.90;;;3.47;;
25327;SDS011;13279;51.300;12.394;2022-10-20T11:42:12;5.50;;;3.40;;
25327;SDS011;13279;51.300;12.394;2022-10-20T11:44:46;5.03;;;3.20;;
25327;SDS011;13279;51.300;12.394;2022-10-20T11:47:15;6.43;;;4.10;;
25327;SDS011;13279;51.300;12.394;2022-10-20T11:49:44;4.27;;;3.60;;
25327;SDS011;13279;51.300;12.394;2022-10-20T11:52:16;8.03;;;3.67;;
25327;SDS011;13279;51.300;12.394;2022-10-20T11:55:04;5.93;;;3.50;;
25327;SDS011;13279;51.300;12.394;2022-10-20T11:57:50;5.30;;;3.13;;
25327;SDS011;13279;51.300;12.394;2022-10-20T12:00:34;5.70;;;3.23;;
25327;SDS011;13279;51.300;12.394;2022-10-20T12:03:23;3.93;;;3.10;;
25327;SDS011;13279;51.300;12.394;2022-10-20T12:06:12;4.53;;;3.37;;
25327;SDS011;13279;51.300;12.394;2022-10-20T12:09:01;5.00;;;3.60;;
25327;SDS011;13279;51.300;12.394;2022-10-20T12:11:54;9.37;;;3.33;;
25327;SDS011;13279;51.300;12.394;2022-10-20T12:14:29;3.93;;;3.07;;
25327;SDS011;13279;51.300;12.394;2022-10-20T12:17:28;4.03;;;2.60;;
25327;SDS011;13279;51.300;12.394;2022-10-20T12:23:05;6.00;;;2.80;;
25327;SDS011;13279;51.300;12.394;2022-10-20T12:25:34;5.00;;;2.60;;
25327;SDS011;13279;51.300;12.394;2022-10-20T12:31:15;7.33;;;3.10;;
25327;SDS011;13279;51.300;12.394;2022-10-20T12:36:47;5.73;;;3.30;;
25327;SDS011;13279;51.300;12.394;2022-10-20T12:39:18;3.90;;;3.03;;
25327;SDS011;13279;51.300;12.394;2022-10-20T12:41:56;6.13;;;3.07;;
25327;SDS011;13279;51.300;12.394;2022-10-20T12:44:26;7.40;;;2.57;;
25327;SDS011;13279;51.300;12.394;2022-10-20T12:47:05;9.23;;;3.20;;
25327;SDS011;13279;51.300;12.394;2022-10-20T12:49:34;3.50;;;3.00;;
25327;SDS011;13279;51.300;12.394;2022-10-20T12:52:05;5.53;;;3.07;;
25327;SDS011;13279;51.300;12.394;2022-10-20T12:54:41;5.60;;;3.30;;
25327;SDS011;13279;51.300;12.394;2022-10-20T12:57:23;5.83;;;3.13;;
25327;SDS011;13279;51.300;12.394;2022-10-20T12:59:53;5.10;;;2.90;;
25327;SDS011;13279;51.300;12.394;2022-10-20T13:02:32;2.70;;;2.50;;
25327;SDS011;13279;51.300;12.394;2022-10-20T13:14:20;3.17;;;2.33;;
25327;SDS011;13279;51.300;12.394;2022-10-20T13:16:58;5.47;;;2.73;;
25327;SDS011;13279;51.300;12.394;2022-10-20T13:19:34;4.53;;;2.67;;
25327;SDS011;13279;51.300;12.394;2022-10-20T13:22:30;3.40;;;1.63;;
25327;SDS011;13279;51.300;12.394;2022-10-20T13:25:04;2.83;;;1.23;;
25327;SDS011;13279;51.300;12.394;2022-10-20T13:27:38;3.93;;;1.63;;
25327;SDS011;13279;51.300;12.394;2022-10-20T13:30:07;1.73;;;1.37;;
25327;SDS011;13279;51.300;12.394;2022-10-20T13:32:37;2.47;;;1.20;;
25327;SDS011;13279;51.300;12.394;2022-10-20T13:35:15;2.17;;;1.27;;
25327;SDS011;13279;51.300;12.394;2022-10-20T13:37:54;1.67;;;1.50;;
25327;SDS011;13279;51.300;12.394;2022-10-20T13:40:27;5.00;;;1.80;;
25327;SDS011;13279;51.300;12.394;2022-10-20T13:43:09;4.73;;;1.67;;
25327;SDS011;13279;51.300;12.394;2022-10-20T13:45:59;2.13;;;1.63;;
25327;SDS011;13279;51.300;12.394;2022-10-20T13:48:47;2.17;;;1.37;;
25327;SDS011;13279;51.300;12.394;2022-10-20T13:51:31;4.20;;;1.47;;
25327;SDS011;13279;51.300;12.394;2022-10-20T13:54:06;2.77;;;1.63;;
25327;SDS011;13279;51.300;12.394;2022-10-20T13:56:34;3.20;;;2.07;;
25327;SDS011;13279;51.300;12.394;2022-10-20T13:59:14;4.30;;;1.73;;
25327;SDS011;13279;51.300;12.394;2022-10-20T14:01:48;3.17;;;1.60;;
25327;SDS011;13279;51.300;12.394;2022-10-20T14:04:24;1.93;;;1.10;;
25327;SDS011;13279;51.300;12.394;2022-10-20T14:06:55;6.57;;;1.80;;
25327;SDS011;13279;51.300;12.394;2022-10-20T14:09:28;6.37;;;1.47;;
25327;SDS011;13279;51.300;12.394;2022-10-20T14:11:57;2.27;;;1.30;;
25327;SDS011;13279;51.300;12.394;2022-10-20T14:14:28;4.33;;;1.17;;
25327;SDS011;13279;51.300;12.394;2022-10-20T14:16:57;1.80;;;1.20;;
25327;SDS011;13279;51.300;12.394;2022-10-20T14:19:27;4.33;;;1.20;;
25327;SDS011;13279;51.300;12.394;2022-10-20T14:21:57;7.17;;;1.60;;
25327;SDS011;13279;51.300;12.394;2022-10-20T14:24:36;3.57;;;1.60;;
25327;SDS011;13279;51.300;12.394;2022-10-20T14:27:12;7.77;;;1.60;;
25327;SDS011;13279;51.300;12.394;2022-10-20T14:29:44;3.60;;;1.70;;
25327;SDS011;13279;51.300;12.394;2022-10-20T14:32:14;3.33;;;1.83;;
25327;SDS011;13279;51.300;12.394;2022-10-20T14:34:52;6.70;;;1.47;;
25327;SDS011;13279;51.300;12.394;2022-10-20T14:37:23;3.53;;;1.37;;
25327;SDS011;13279;51.300;12.394;2022-10-20T14:39:57;3.00;;;1.40;;
25327;SDS011;13279;51.300;12.394;2022-10-20T14:42:28;7.70;;;1.70;;
25327;SDS011;13279;51.300;12.394;2022-10-20T14:44:56;1.60;;;1.50;;
25327;SDS011;13279;51.300;12.394;2022-10-20T14:47:27;3.80;;;1.70;;
25327;SDS011;13279;51.300;12.394;2022-10-20T14:50:00;5.27;;;1.80;;
25327;SDS011;13279;51.300;12.394;2022-10-20T14:52:29;2.27;;;1.50;;
25327;SDS011;13279;51.300;12.394;2022-10-20T14:54:59;8.23;;;2.17;;
25327;SDS011;13279;51.300;12.394;2022-10-20T14:57:36;2.83;;;1.87;;
25327;SDS011;13279;51.300;12.394;2022-10-20T15:00:24;5.23;;;1.40;;
25327;SDS011;13279;51.300;12.394;2022-10-20T15:03:00;5.63;;;1.53;;
25327;SDS011;13279;51.300;12.394;2022-10-20T15:05:33;6.60;;;2.03;;
25327;SDS011;13279;51.300;12.394;2022-10-20T15:08:17;3.57;;;1.90;;
25327;SDS011;13279;51.300;12.394;2022-10-20T15:10:50;1.83;;;1.43;;
25327;SDS011;13279;51.300;12.394;2022-10-20T15:13:22;2.30;;;1.60;;
25327;SDS011;13279;51.300;12.394;2022-10-20T15:15:52;3.80;;;2.13;;
25327;SDS011;13279;51.300;12.394;2022-10-20T15:18:20;5.40;;;2.10;;
25327;SDS011;13279;51.300;12.394;2022-10-20T15:20:49;3.20;;;1.67;;
25327;SDS011;13279;51.300;12.394;2022-10-20T15:23:19;6.10;;;2.40;;
25327;SDS011;13279;51.300;12.394;2022-10-20T15:25:49;8.07;;;3.97;;
25327;SDS011;13279;51.300;12.394;2022-10-20T15:28:19;5.53;;;2.97;;
25327;SDS011;13279;51.300;12.394;2022-10-20T15:30:55;3.17;;;2.17;;